Latest Weather Observations for Gold Coast Seaway

IDQ60901

Issued at 10:45 pm EST Thursday 24 April 2014 (issued every 10 minutes, with the page automatically refreshed every 10 minutes)

About weather observations | Map of Brisbane area stations | Latest observations for Brisbane area | Other Formats
Station Details ID: 040764 Name: GOLD COAST SEAWAY Lat: -27.94 Lon: 153.43 Height: 2.98 m
Data from the previous 72 hours. | See also: Recent months at Gold Coast Seaway
Date/Time
EST
Tmp

°C
App
Tmp
°C
Dew
Point
°C
Rel
Hum
%
Delta-T

°C
Wind Press
QNH
hPa
Press
MSL
hPa
Rain
since
9 am
mm
Dir
 
Spd
km/h
Gust
km/h
Spd
kts
Gust
kts
24/10:30pm 20.5 21.2 17.9 85 1.6 SW 11 13 6 7 1016.6 - 0.0
24/10:00pm 20.8 21.9 18.0 84 1.7 WSW 9 11 5 6 1016.5 - 0.0
24/09:30pm 21.4 22.7 18.4 83 1.9 WNW 9 11 5 6 1016.7 - 0.0
24/09:00pm 21.6 22.9 18.4 82 2.0 WNW 9 11 5 6 1016.6 1016.6 0.0
24/08:30pm 21.6 23.2 18.2 81 2.1 NW 7 9 4 5 1016.4 - 0.0
24/08:00pm 22.4 23.7 18.4 78 2.5 NW 9 9 5 5 1016.2 - 0.0
24/07:30pm 23.0 23.8 18.1 74 3.1 N 11 15 6 8 1015.8 - 0.0
24/07:00pm 23.5 23.6 18.4 73 3.2 NNE 15 17 8 9 1015.6 - 0.0
24/06:30pm 23.7 23.7 19.0 75 3.0 NE 17 19 9 10 1015.1 - 0.0
24/06:00pm 23.6 23.0 18.5 73 3.2 NNE 19 22 10 12 1015.0 1015.0 0.0
24/05:30pm 24.0 23.3 18.6 72 3.4 NNE 20 26 11 14 1014.9 - 0.0
24/05:00pm 24.2 23.7 18.6 71 3.5 NNE 19 24 10 13 1014.6 - 0.0
24/04:30pm 24.8 23.4 18.7 69 3.9 NE 24 28 13 15 1014.3 - 0.0
24/04:00pm 25.5 24.2 18.2 64 4.6 NNE 22 26 12 14 1013.7 - 0.0
24/03:30pm 25.8 24.3 17.7 61 5.1 NE 22 26 12 14 1013.6 - 0.0
24/03:00pm 26.3 23.9 16.3 54 6.2 NE 24 28 13 15 1013.7 1013.7 0.0
24/02:30pm 26.6 23.4 15.3 50 6.9 NE 26 30 14 16 1013.9 - 0.0
24/02:00pm 26.5 24.2 17.6 58 5.6 NE 26 30 14 16 1013.9 - 0.0
24/01:30pm 26.7 24.6 18.0 59 5.5 NE 26 30 14 16 1014.1 - 0.0
24/01:00pm 27.0 25.6 18.0 58 5.7 NE 22 24 12 13 1014.4 - 0.0
24/12:30pm 27.4 25.9 17.6 55 6.2 NE 22 26 12 14 1014.8 - 0.0
24/12:00pm 27.6 26.6 18.0 55 6.1 NE 20 24 11 13 1015.2 1015.2 0.0
24/11:30am 27.6 27.4 17.5 54 6.4 NE 15 17 8 9 1015.4 - 0.0
24/11:00am 27.5 26.8 15.5 48 7.3 NNE 13 17 7 9 1016.1 - 0.0
24/10:30am 27.0 26.5 16.9 54 6.3 NNE 15 17 8 9 1016.9 - 0.0
24/10:00am 25.9 25.2 17.3 59 5.4 NNE 17 19 9 10 1017.4 - 0.0
24/09:30am 24.2 24.5 15.9 59 5.0 NW 9 11 5 6 1017.5 - 0.0
24/09:00am 23.3 22.9 16.1 64 4.4 NW 13 15 7 8 1017.5 1017.5 0.0
24/08:30am 22.2 22.0 16.7 71 3.4 NW 13 15 7 8 1017.4 - 0.0
24/08:00am 21.0 20.9 17.0 78 2.4 NW 13 13 7 7 1017.4 - 0.0
24/07:30am 20.2 20.3 16.6 80 2.2 WNW 11 13 6 7 1016.7 - 0.0
24/07:00am 19.0 19.0 16.2 84 1.7 WNW 11 13 6 7 1016.4 - 0.0
24/06:30am 18.2 18.2 16.2 88 1.2 WNW 11 13 6 7 1016.1 - 0.0
24/06:00am 18.2 18.2 16.2 88 1.2 W 11 13 6 7 1015.9 1015.9 0.0
24/05:30am 17.9 18.3 16.4 91 0.9 WSW 9 11 5 6 1015.9 - 0.0
24/05:00am 18.2 18.6 16.4 89 1.1 SW 9 13 5 7 1015.8 - 0.0
24/04:30am 18.4 18.5 16.4 88 1.2 SW 11 13 6 7 1015.7 - 0.0
24/04:00am 18.5 18.4 16.1 86 1.4 W 11 13 6 7 1015.8 - 0.0
24/03:30am 18.4 18.8 16.2 87 1.3 WSW 9 11 5 6 1015.7 - 0.0
24/03:00am 18.7 19.1 16.3 86 1.4 WSW 9 9 5 5 1015.6 1015.6 0.0
24/02:30am 18.9 19.4 16.5 86 1.4 WSW 9 11 5 6 1015.8 - 0.0
24/02:00am 19.0 19.5 16.6 86 1.4 WSW 9 11 5 6 1015.9 - 0.0
24/01:30am 19.1 19.7 16.9 87 1.3 WSW 9 11 5 6 1016.2 - 0.0
24/01:00am 19.2 19.9 17.0 87 1.3 WSW 9 13 5 7 1016.6 - 0.0
24/12:30am 19.1 20.0 16.7 86 1.4 W 7 9 4 5 1016.9 - 0.0
24/12:00am 19.3 19.5 16.7 85 1.6 WNW 11 11 6 6 1017.2 1017.2 0.0
 
Date/Time
EST
Tmp

°C
App
Tmp
°C
Dew
Point
°C
Rel
Hum
%
Delta-T

°C
Wind Press
QNH
hPa
Press
MSL
hPa
Rain
since
9 am
mm
Dir
 
Spd
km/h
Gust
km/h
Spd
kts
Gust
kts
23/11:30pm 19.0 19.4 16.2 84 1.7 WNW 9 11 5 6 1017.6 - 0.0
23/11:00pm 19.3 19.6 16.0 81 2.0 WSW 9 11 5 6 1017.7 - 0.0
23/10:30pm 20.0 21.0 16.8 82 1.9 SW 7 9 4 5 1017.8 - 0.0
23/10:00pm 20.2 20.6 16.4 79 2.3 SW 9 11 5 6 1017.8 - 0.0
23/09:30pm 20.8 21.9 17.0 79 2.3 WSW 7 9 4 5 1017.7 - 0.0
23/09:00pm 21.1 21.3 16.7 76 2.7 W 11 13 6 7 1017.6 1017.6 0.0
23/08:30pm 21.3 21.8 16.5 74 2.9 WNW 9 11 5 6 1017.5 - 0.0
23/08:00pm 22.2 22.5 16.9 72 3.2 NW 11 13 6 7 1017.5 - 0.0
23/07:30pm 22.9 22.4 16.9 69 3.7 N 15 22 8 12 1017.1 - 0.0
23/07:00pm 23.6 21.5 17.1 67 4.0 N 24 30 13 16 1017.0 - 0.0
23/06:30pm 23.5 21.2 17.5 69 3.7 NNE 26 30 14 16 1016.8 - 0.0
23/06:00pm 23.6 20.9 16.6 65 4.3 NNE 26 30 14 16 1016.4 1016.4 0.0
23/05:30pm 23.7 21.0 16.7 65 4.3 NNE 26 30 14 16 1016.2 - 0.0
23/05:00pm 24.1 21.6 17.1 65 4.3 NNE 26 28 14 15 1015.9 - 0.0
23/04:30pm 24.8 22.3 17.0 62 4.8 NNE 26 28 14 15 1015.6 - 0.0
23/04:00pm 25.4 22.6 16.3 57 5.6 NNE 26 30 14 16 1015.5 - 0.0
23/03:30pm 26.0 23.2 16.3 55 6.0 NNE 26 30 14 16 1015.6 - 0.0
23/03:00pm 26.2 22.8 15.9 53 6.3 NNE 28 32 15 17 1015.5 1015.5 0.0
23/02:30pm 26.9 24.4 17.1 55 6.1 NNE 26 30 14 16 1015.6 - 0.0
23/02:00pm 26.7 23.7 16.9 55 6.1 NNE 28 32 15 17 1015.7 - 0.0
23/01:30pm 26.8 24.4 17.3 56 5.9 NE 26 30 14 16 1015.9 - 0.0
23/01:00pm 27.1 24.1 15.8 50 6.9 NE 26 28 14 15 1016.1 - 0.0
23/12:30pm 27.5 25.0 15.2 47 7.5 NNE 22 26 12 14 1016.5 - 0.0
23/12:00pm 28.2 26.0 13.3 40 8.8 NNE 17 20 9 11 1017.1 1017.1 0.0
23/11:30am 27.9 25.7 13.4 40 8.6 N 17 22 9 12 1017.7 - 0.0
23/11:00am 27.4 25.9 13.0 41 8.4 NW 13 19 7 10 1018.2 - 0.0
23/10:30am 26.4 24.7 12.5 42 8.0 NW 13 17 7 9 1018.5 - 0.0
23/10:00am 25.8 23.9 14.3 49 6.8 NW 17 22 9 12 1019.0 - 0.0
23/09:30am 25.0 24.1 15.9 57 5.5 NW 15 19 8 10 1019.3 - 0.0
23/09:00am 23.9 23.7 15.7 60 4.9 NW 11 15 6 8 1019.4 1019.4 0.0
23/08:30am 22.5 23.1 15.8 66 4.0 W 7 9 4 5 1019.6 - 0.0
23/08:00am 20.8 21.4 15.8 73 3.0 WSW 7 9 4 5 1019.5 - 0.0
23/07:30am 19.1 19.2 15.4 79 2.2 WSW 9 11 5 6 1019.5 - 0.0
23/07:00am 18.1 18.2 15.4 84 1.6 W 9 9 5 5 1019.3 - 0.0
23/06:30am 17.6 17.5 14.9 84 1.6 W 9 11 5 6 1019.1 - 0.0
23/06:00am 17.9 17.9 15.3 85 1.5 WSW 9 13 5 7 1018.9 1018.9 0.0
23/05:30am 17.8 17.7 14.9 83 1.7 WSW 9 11 5 6 1018.8 - 0.0
23/05:00am 17.8 17.6 14.7 82 1.8 WSW 9 11 5 6 1018.5 - 0.0
23/04:30am 18.0 17.4 14.7 81 1.9 WSW 11 13 6 7 1018.3 - 0.0
23/04:00am 18.2 18.0 14.7 80 2.0 W 9 13 5 7 1017.9 - 0.0
23/03:30am 18.2 17.7 14.9 81 1.9 W 11 11 6 6 1018.0 - 0.0
23/03:00am 18.4 18.3 14.9 80 2.0 W 9 11 5 6 1018.1 1018.1 0.0
23/02:30am 18.4 18.3 14.9 80 2.0 W 9 11 5 6 1018.2 - 0.0
23/02:00am 18.5 18.0 15.0 80 2.0 W 11 11 6 6 1018.5 - 0.0
23/01:30am 18.8 18.8 15.1 79 2.2 W 9 11 5 6 1018.7 - 0.0
23/01:00am 18.8 18.5 14.5 76 2.5 WNW 9 11 5 6 1018.9 - 0.0
23/12:30am 18.9 18.2 14.4 75 2.6 WNW 11 13 6 7 1019.0 - 0.0
23/12:00am 19.2 18.8 15.1 77 2.4 W 11 13 6 7 1019.0 1019.0 0.0
 
Date/Time
EST
Tmp

°C
App
Tmp
°C
Dew
Point
°C
Rel
Hum
%
Delta-T

°C
Wind Press
QNH
hPa
Press
MSL
hPa
Rain
since
9 am
mm
Dir
 
Spd
km/h
Gust
km/h
Spd
kts
Gust
kts
22/11:30pm 19.2 19.1 14.9 76 2.5 W 9 11 5 6 1019.1 - 0.0
22/11:00pm 19.3 19.2 15.0 76 2.5 WSW 9 11 5 6 1019.4 - 0.0
22/10:30pm 19.5 18.9 14.7 74 2.8 W 11 13 6 7 1019.6 - 0.0
22/10:00pm 19.9 19.6 14.5 71 3.1 W 9 11 5 6 1019.7 - 0.0
22/09:30pm 20.0 19.8 14.8 72 3.0 WNW 9 11 5 6 1019.7 - 0.0
22/09:00pm 20.1 19.8 14.5 70 3.3 WNW 9 11 5 6 1019.7 1019.7 0.0
22/08:30pm 21.0 20.9 14.9 68 3.6 WNW 9 11 5 6 1019.8 - 0.0
22/08:00pm 21.6 21.6 15.2 67 3.8 WNW 9 11 5 6 1019.7 - 0.0
22/07:30pm 22.4 21.4 14.5 61 4.6 N 13 17 7 9 1019.4 - 0.0
22/07:00pm 23.3 20.8 14.0 56 5.4 N 20 24 11 13 1019.3 - 0.0
22/06:30pm 23.4 21.2 14.9 59 5.1 NNE 20 26 11 14 1019.1 - 0.0
22/06:00pm 23.5 20.9 15.0 59 5.1 NNE 22 26 12 14 1018.9 1018.9 0.0
22/05:30pm 23.6 21.1 16.1 62 4.6 NNE 24 28 13 15 1018.7 - 0.0
22/05:00pm 23.8 21.0 15.3 59 5.1 NNE 24 28 13 15 1018.7 - 0.0
22/04:30pm 24.7 22.2 16.2 59 5.2 NNE 24 28 13 15 1018.6 - 0.0
22/04:00pm 25.2 22.2 15.8 56 5.7 NNE 26 28 14 15 1018.3 - 0.0
22/03:30pm 25.6 22.3 15.0 52 6.4 NE 26 30 14 16 1018.1 - 0.0
22/03:00pm 26.1 23.8 15.8 53 6.3 NE 22 26 12 14 1018.6 1018.6 0.0
22/02:30pm 27.0 24.9 15.1 48 7.2 NNE 20 24 11 13 1018.7 - 0.0
22/02:00pm 26.5 24.2 15.8 51 6.5 NE 22 26 12 14 1018.5 - 0.0
22/01:30pm 26.6 24.4 15.9 51 6.5 NE 22 26 12 14 1018.7 - 0.0
22/01:00pm 26.5 24.7 16.1 52 6.4 NE 20 24 11 13 1019.0 - 0.0
22/12:30pm 27.0 25.4 15.1 48 7.2 NE 17 19 9 10 1019.4 - 0.0
22/12:00pm 27.3 26.2 15.3 48 7.3 NE 15 20 8 11 1020.2 1020.2 0.0
22/11:30am 27.6 26.7 14.9 45 7.7 NNE 13 15 7 8 1020.9 - 0.0
22/11:00am 27.1 26.1 14.5 46 7.6 NNE 13 15 7 8 1021.0 - 0.0
22/10:30am 26.7 25.5 14.1 46 7.5 N 13 17 7 9 1020.9 - 0.0
22/10:00am 25.8 25.2 14.6 50 6.7 NNW 11 19 6 10 1021.3 - 0.0
22/09:30am 25.1 23.8 13.6 49 6.7 NW 13 19 7 10 1021.6 - 0.0
22/09:00am 24.6 23.4 15.0 55 5.7 NW 15 17 8 9 1021.8 1021.8 0.0
22/08:30am 23.5 23.0 14.8 58 5.2 W 11 15 6 8 1021.7 - 0.0
22/08:00am 21.9 21.7 15.7 68 3.7 W 11 13 6 7 1021.5 - 0.0
22/07:30am 20.7 21.1 16.3 76 2.6 WNW 9 11 5 6 1021.4 - 0.0
22/07:00am 19.3 19.7 16.2 82 1.9 WNW 9 9 5 5 1021.3 - 0.0
22/06:30am 18.1 18.4 15.9 87 1.3 W 9 11 5 6 1021.1 - 0.0
22/06:00am 17.9 18.2 15.9 88 1.2 W 9 11 5 6 1020.8 1020.8 0.0
22/05:30am 18.2 18.2 16.2 88 1.2 WNW 11 13 6 7 1020.7 - 0.0
22/05:00am 18.3 19.0 16.1 87 1.3 W 7 9 4 5 1020.5 - 0.0
22/04:30am 18.4 18.8 16.2 87 1.3 W 9 11 5 6 1020.3 - 0.0
22/04:00am 18.4 18.9 16.6 89 1.1 W 9 11 5 6 1020.1 - 0.0
22/03:30am 18.1 18.2 16.6 91 0.9 WNW 11 13 6 7 1020.0 - 0.0
22/03:00am 18.3 19.4 17.0 92 0.8 W 7 9 4 5 1019.8 1019.8 0.0
22/02:30am 17.7 18.8 15.5 87 1.3 W 4 6 2 3 1019.9 - 0.0
22/02:00am 18.1 18.7 15.4 84 1.6 W 6 7 3 4 1020.1 - 0.0
22/01:30am 19.1 20.2 16.7 86 1.4 W 6 9 3 5 1020.3 - 0.0
22/01:00am 19.4 20.5 17.2 87 1.3 W 7 9 4 5 1020.3 - 0.0
22/12:30am 19.5 20.7 17.3 87 1.3 W 7 9 4 5 1020.6 - 0.0
22/12:00am 20.0 20.6 16.8 82 1.9 WNW 9 9 5 5 1020.6 1020.6 0.0
 
Date/Time
EST
Tmp

°C
App
Tmp
°C
Dew
Point
°C
Rel
Hum
%
Delta-T

°C
Wind Press
QNH
hPa
Press
MSL
hPa
Rain
since
9 am
mm
Dir
 
Spd
km/h
Gust
km/h
Spd
kts
Gust
kts
21/11:30pm 20.4 21.2 17.2 82 2.0 WNW 9 11 5 6 1020.8 - 0.0
21/11:00pm 20.6 20.8 16.8 79 2.3 WNW 11 13 6 7 1020.9 - 0.0

Latest Capital City Observations: Canberra | Sydney | Melbourne | Brisbane | Adelaide | Perth | Hobart | Darwin

Other Formats:

Comma delimited format used in spreadsheet applications
http://www.bom.gov.au/fwo/IDQ60901/IDQ60901.94580.axf

JavaScript Object Notation format (JSON) in row-major order
http://www.bom.gov.au/fwo/IDQ60901/IDQ60901.94580.json